Time;durP1;ratioP1;P1;durP2;ratioP2;P2;SDS_P1;SDS_P2;PMS_P1;PMS_P2;Temp;Humidity;BMP_temperature;BMP_pressure;BME280_temperature;BME280_humidity;BME280_pressure;Samples;Min_cycle;Max_cycle;Signal;HPM_P1;HPM_P2
2023/12/10 00:02:14;;;;;;;51.90;24.90;;;;;;;2.54;74.64;93836.31;5065136;28;20060;-85
2023/12/10 00:04:39;;;;;;;50.10;25.48;;;;;;;2.53;74.78;93827.66;5064891;28;20091;-86
2023/12/10 00:07:05;;;;;;;50.63;24.60;;;;;;;2.52;74.64;93820.78;5063860;28;20025;-86
2023/12/10 00:09:31;;;;;;;46.10;23.55;;;;;;;2.53;74.30;93834.75;5065123;28;20036;-86
2023/12/10 00:11:56;;;;;;;50.03;25.50;;;;;;;2.50;74.61;93833.41;5065089;28;20049;-86
2023/12/10 00:14:24;;;;;;;52.50;24.65;;;;;;;2.51;74.57;93835.00;5064974;28;20029;-87
2023/12/10 00:16:49;;;;;;;49.38;24.83;;;;;;;2.53;74.75;93826.88;5064864;28;20261;-87
2023/12/10 00:19:15;;;;;;;52.88;26.75;;;;;;;2.49;74.51;93831.06;5064937;28;20036;-87
2023/12/10 00:21:40;;;;;;;49.22;23.52;;;;;;;2.44;74.50;93823.94;5063655;28;20021;-86
2023/12/10 00:24:06;;;;;;;54.03;25.00;;;;;;;2.45;75.00;93838.69;5063734;28;20079;-86
2023/12/10 00:26:32;;;;;;;55.30;26.88;;;;;;;2.46;74.62;93842.91;5064983;28;20219;-86
2023/12/10 00:28:57;;;;;;;51.97;25.90;;;;;;;2.46;74.98;93836.84;5063018;28;20086;-87
2023/12/10 00:31:22;;;;;;;51.33;24.45;;;;;;;2.45;74.86;93838.69;5063504;28;20035;-86
2023/12/10 00:33:48;;;;;;;49.50;23.27;;;;;;;2.45;75.03;93819.50;5064678;28;20021;-87
2023/12/10 00:36:15;;;;;;;48.80;24.02;;;;;;;2.48;74.95;93832.91;5063531;28;20025;-86
2023/12/10 00:38:42;;;;;;;48.00;24.85;;;;;;;2.46;74.52;93827.09;5064518;28;20025;-86
2023/12/10 00:41:10;;;;;;;45.53;24.33;;;;;;;2.49;74.44;93826.59;5064098;28;20017;-87
2023/12/10 00:43:36;;;;;;;50.05;23.58;;;;;;;2.50;74.25;93822.13;5064202;28;20025;-86
2023/12/10 00:46:01;;;;;;;43.85;22.63;;;;;;;2.49;74.24;93815.28;5064438;28;20143;-87
2023/12/10 00:48:27;;;;;;;51.80;24.92;;;;;;;2.46;74.46;93824.47;5063209;28;20028;-87
2023/12/10 00:50:53;;;;;;;41.17;21.88;;;;;;;2.46;74.49;93826.31;5063999;28;20067;-87
2023/12/10 00:53:18;;;;;;;47.72;22.27;;;;;;;2.45;74.29;93828.19;5063993;28;20016;-87
2023/12/10 00:55:44;;;;;;;43.72;22.75;;;;;;;2.44;74.14;93842.38;5063196;28;20311;-87
2023/12/10 00:58:11;;;;;;;44.22;22.08;;;;;;;2.41;74.24;93830.53;5063887;28;20060;-87
2023/12/10 01:00:36;;;;;;;40.65;21.15;;;;;;;2.44;74.21;93825.81;5062883;28;20020;-87
2023/12/10 01:03:04;;;;;;;46.90;23.10;;;;;;;2.40;74.48;93831.59;5062956;28;20276;-87
2023/12/10 01:05:29;;;;;;;50.45;24.20;;;;;;;2.39;74.39;93826.59;5062951;28;20047;-87
2023/12/10 01:07:55;;;;;;;45.22;21.33;;;;;;;2.38;74.15;93819.75;5063782;28;20365;-87
2023/12/10 01:10:20;;;;;;;43.72;21.65;;;;;;;2.41;74.16;93816.59;5062634;28;20029;-87
2023/12/10 01:12:46;;;;;;;48.42;23.35;;;;;;;2.41;74.08;93812.13;5063826;28;20071;-88
2023/12/10 01:15:11;;;;;;;50.47;23.83;;;;;;;2.37;74.21;93808.44;5062368;28;20025;-87
2023/12/10 01:17:37;;;;;;;50.83;23.92;;;;;;;2.37;74.25;93813.69;5063430;28;20025;-87
2023/12/10 01:20:06;;;;;;;58.60;23.85;;;;;;;2.40;74.18;93812.38;5063038;28;20104;-87
2023/12/10 01:22:31;;;;;;;41.90;22.75;;;;;;;2.41;74.47;93808.72;5062652;28;20059;-87
2023/12/10 01:24:58;;;;;;;44.50;22.33;;;;;;;2.38;74.36;93809.22;5063725;28;20025;-87
2023/12/10 01:27:23;;;;;;;41.33;22.77;;;;;;;2.36;74.52;93795.53;5063720;28;20192;-87
2023/12/10 01:29:49;;;;;;;44.92;22.63;;;;;;;2.37;74.34;93791.88;5063392;28;20032;-87
2023/12/10 01:32:15;;;;;;;50.30;22.92;;;;;;;2.36;74.40;93800.78;5063429;28;20016;-87
2023/12/10 01:34:44;;;;;;;48.10;22.85;;;;;;;2.39;74.46;93787.91;5063538;28;20055;-87
2023/12/10 01:37:10;;;;;;;46.28;22.48;;;;;;;2.37;74.55;93782.13;5063551;28;20311;-87
2023/12/10 01:39:36;;;;;;;40.20;21.33;;;;;;;2.37;74.57;93776.09;5063639;28;20017;-86
2023/12/10 01:42:02;;;;;;;46.05;21.50;;;;;;;2.37;74.44;93776.09;5063405;28;20067;-87
2023/12/10 01:44:28;;;;;;;41.75;21.38;;;;;;;2.34;74.59;93776.59;5062341;28;20024;-87
2023/12/10 01:46:55;;;;;;;39.63;21.20;;;;;;;2.33;74.40;93775.81;5063734;28;20191;-87
2023/12/10 01:49:23;;;;;;;40.53;20.95;;;;;;;2.31;74.18;93780.56;5063610;28;20017;-87
2023/12/10 01:51:49;;;;;;;41.10;19.83;;;;;;;2.31;74.11;93782.41;5063565;28;20020;-87
2023/12/10 01:54:21;;;;;;;44.00;21.63;;;;;;;2.34;74.10;93798.47;5063486;28;20013;-87
2023/12/10 01:56:50;;;;;;;50.53;21.40;;;;;;;2.31;73.96;93790.28;5062162;28;20243;-87
2023/12/10 01:59:18;;;;;;;39.05;20.13;;;;;;;2.23;73.94;93801.34;5063080;28;20013;-87
2023/12/10 02:01:44;;;;;;;43.28;21.88;;;;;;;2.18;74.17;93800.28;5061969;28;20041;-88
2023/12/10 02:04:10;;;;;;;42.20;20.70;;;;;;;2.21;74.19;93785.81;5062900;28;20048;-88
2023/12/10 02:06:36;;;;;;;42.20;21.25;;;;;;;2.20;74.32;93802.66;5063138;28;20025;-87
2023/12/10 02:09:04;;;;;;;43.75;21.73;;;;;;;2.21;74.30;93788.44;5063008;28;20036;-87
2023/12/10 02:11:30;;;;;;;42.22;22.25;;;;;;;2.26;74.27;93788.47;5063236;28;20013;-87
2023/12/10 02:13:56;;;;;;;41.15;21.08;;;;;;;2.27;74.50;93786.59;5062959;28;20337;-87
2023/12/10 02:16:21;;;;;;;44.88;22.02;;;;;;;2.28;74.14;93788.97;5066042;28;20376;-87
2023/12/10 02:18:46;;;;;;;40.95;21.27;;;;;;;2.26;74.30;93777.13;5067523;28;20334;-87
2023/12/10 02:21:12;;;;;;;38.80;21.02;;;;;;;2.29;74.16;93787.13;5067271;28;20025;-87
2023/12/10 02:23:49;;;;;;;43.00;22.15;;;;;;;2.26;74.38;93779.75;5067046;28;20021;-86
2023/12/10 02:26:15;;;;;;;47.97;22.13;;;;;;;2.24;74.58;93784.50;5066883;28;20031;-87
2023/12/10 02:28:41;;;;;;;49.03;23.02;;;;;;;2.26;74.41;93790.28;5067124;28;20024;-86
2023/12/10 02:31:07;;;;;;;47.50;23.70;;;;;;;2.27;74.54;93782.13;5066886;28;20021;-87
2023/12/10 02:33:32;;;;;;;42.88;21.55;;;;;;;2.25;74.18;93773.72;5065604;28;20025;-87
2023/12/10 02:35:58;;;;;;;52.05;24.17;;;;;;;2.28;74.24;93761.88;5066818;28;20218;-87
2023/12/10 02:38:23;;;;;;;44.25;22.63;;;;;;;2.28;74.27;93767.13;5066764;28;20468;-87
2023/12/10 02:40:49;;;;;;;40.70;20.58;;;;;;;2.26;74.43;93771.88;5065699;28;20025;-87
2023/12/10 02:43:19;;;;;;;46.90;22.08;;;;;;;2.24;74.71;93763.44;5065792;28;20400;-87
2023/12/10 02:45:45;;;;;;;51.22;23.40;;;;;;;2.21;74.99;93765.56;5066300;28;20032;-87
2023/12/10 02:48:11;;;;;;;44.03;21.55;;;;;;;2.22;75.03;93766.38;5065370;28;20286;-87
2023/12/10 02:50:36;;;;;;;48.40;22.98;;;;;;;2.24;75.03;93758.19;5066415;28;20058;-87
2023/12/10 02:53:02;;;;;;;47.50;23.23;;;;;;;2.25;75.16;93755.31;5065489;28;20029;-86
2023/12/10 02:55:27;;;;;;;48.85;23.05;;;;;;;2.23;75.09;93759.25;5066478;28;20088;-87
2023/12/10 02:57:53;;;;;;;55.67;24.17;;;;;;;2.19;75.36;93770.28;5065955;28;20040;-87
2023/12/10 03:00:19;;;;;;;47.22;22.52;;;;;;;2.19;75.12;93782.66;5065179;28;20024;-86
2023/12/10 03:02:45;;;;;;;47.95;22.83;;;;;;;2.23;75.33;93767.94;5065382;28;20071;-87
2023/12/10 03:05:10;;;;;;;49.85;23.52;;;;;;;2.22;75.10;93771.63;5065140;28;20050;-87
2023/12/10 03:07:35;;;;;;;44.40;21.60;;;;;;;2.23;75.19;93764.50;5064949;28;20253;-86
2023/12/10 03:10:04;;;;;;;43.63;22.00;;;;;;;2.26;74.96;93762.16;5066246;28;20261;-87
2023/12/10 03:12:29;;;;;;;47.58;22.17;;;;;;;2.20;75.14;93750.06;5066452;28;20098;-87
2023/12/10 03:14:55;;;;;;;45.92;21.70;;;;;;;2.23;75.06;93754.78;5066287;28;20017;-87
2023/12/10 03:17:20;;;;;;;41.67;21.33;;;;;;;2.25;75.12;93749.25;5066200;28;20025;-86
2023/12/10 03:19:46;;;;;;;45.65;22.27;;;;;;;2.21;75.29;93741.09;5065943;28;20017;-87
2023/12/10 03:22:11;;;;;;;48.75;22.92;;;;;;;2.21;75.39;93747.16;5065715;28;20030;-86
2023/12/10 03:24:37;;;;;;;48.45;21.45;;;;;;;2.26;75.47;93756.91;5065974;28;20082;-87
2023/12/10 03:27:02;;;;;;;46.85;23.40;;;;;;;2.26;75.00;93753.47;5065328;28;20315;-87
2023/12/10 03:29:28;;;;;;;47.38;22.67;;;;;;;2.24;75.28;93750.31;5065994;28;20021;-87
2023/12/10 03:31:53;;;;;;;46.28;21.88;;;;;;;2.23;75.03;93754.00;5064640;28;20048;-87
2023/12/10 03:34:19;;;;;;;54.15;24.35;;;;;;;2.15;75.06;93750.81;5065142;28;20045;-87
2023/12/10 03:36:44;;;;;;;53.15;23.88;;;;;;;2.15;75.51;93748.19;5065650;28;20040;-87
2023/12/10 03:39:10;;;;;;;52.03;23.45;;;;;;;2.15;75.44;93748.19;5064759;28;20315;-86
2023/12/10 03:41:35;;;;;;;53.45;24.63;;;;;;;2.14;75.52;93744.00;5064497;28;20045;-87
2023/12/10 03:44:01;;;;;;;53.65;24.25;;;;;;;2.14;75.33;93757.16;5065451;28;20382;-87
2023/12/10 03:46:26;;;;;;;54.88;24.25;;;;;;;2.15;75.48;93747.41;5065736;28;20028;-87
2023/12/10 03:48:52;;;;;;;56.53;25.88;;;;;;;2.14;75.67;93748.47;5065672;28;20318;-87
2023/12/10 03:51:17;;;;;;;54.83;23.73;;;;;;;2.14;75.67;93756.38;5065547;28;20025;-87
2023/12/10 03:53:43;;;;;;;53.05;24.70;;;;;;;2.15;75.61;93763.19;5064473;28;20100;-87
2023/12/10 03:56:10;;;;;;;54.10;24.77;;;;;;;2.14;76.04;93754.53;5065685;28;20029;-87
2023/12/10 03:58:36;;;;;;;53.88;24.30;;;;;;;2.08;75.83;93750.31;5065146;28;20317;-87
2023/12/10 04:01:04;;;;;;;48.53;22.10;;;;;;;2.09;75.75;93759.75;5065500;28;20071;-88
2023/12/10 04:03:30;;;;;;;44.08;21.20;;;;;;;2.08;75.97;93742.44;5065290;28;20020;-87
2023/12/10 04:05:56;;;;;;;46.72;21.95;;;;;;;2.00;76.14;93763.97;5064944;28;20032;-87
2023/12/10 04:08:21;;;;;;;41.78;19.30;;;;;;;2.04;76.33;93759.78;5064408;28;20025;-87
2023/12/10 04:10:47;;;;;;;45.67;20.40;;;;;;;2.06;76.09;93762.16;5064801;28;20078;-87
2023/12/10 04:13:12;;;;;;;36.65;17.63;;;;;;;2.00;76.06;93767.38;5063816;28;20216;-87
2023/12/10 04:15:38;;;;;;;40.85;19.08;;;;;;;2.03;76.13;93758.19;5063854;28;20020;-87
2023/12/10 04:18:03;;;;;;;39.80;16.98;;;;;;;2.05;75.92;93757.94;5065154;28;20013;-87
2023/12/10 04:20:29;;;;;;;32.33;15.68;;;;;;;1.98;75.32;93763.44;5064903;28;20040;-87
2023/12/10 04:22:54;;;;;;;32.58;16.20;;;;;;;1.85;75.70;93761.31;5064816;28;20024;-86
2023/12/10 04:25:19;;;;;;;35.08;17.15;;;;;;;1.78;76.00;93762.34;5063715;28;20044;-86
2023/12/10 04:27:45;;;;;;;37.05;17.60;;;;;;;1.75;76.17;93777.84;5064753;28;20222;-87
2023/12/10 04:30:11;;;;;;;37.78;19.08;;;;;;;1.60;76.72;93763.63;5064587;28;20027;-86
2023/12/10 04:32:36;;;;;;;49.95;21.90;;;;;;;1.52;77.55;93766.75;5064652;28;20017;-86
2023/12/10 04:35:02;;;;;;;46.05;20.25;;;;;;;1.50;77.54;93768.06;5064482;28;20013;-86
2023/12/10 04:37:27;;;;;;;43.28;19.40;;;;;;;1.49;77.76;93766.50;5064871;28;20040;-86
2023/12/10 04:39:53;;;;;;;43.78;20.38;;;;;;;1.55;78.24;93765.47;5063707;28;20051;-86
2023/12/10 04:42:19;;;;;;;53.78;22.45;;;;;;;1.58;78.08;93762.31;5063298;28;20024;-86
2023/12/10 04:44:44;;;;;;;40.58;19.40;;;;;;;1.60;78.29;93768.09;5064450;28;20183;-86
2023/12/10 04:47:10;;;;;;;43.95;19.83;;;;;;;1.63;78.04;93757.09;5064673;28;20021;-86
2023/12/10 04:49:35;;;;;;;44.85;21.00;;;;;;;1.59;77.63;93756.81;5063026;28;20307;-86
2023/12/10 04:52:01;;;;;;;43.22;18.88;;;;;;;1.61;77.41;93769.69;5064589;28;20032;-86
2023/12/10 04:54:26;;;;;;;43.83;20.83;;;;;;;1.61;77.31;93748.69;5062999;28;20333;-86
2023/12/10 04:56:52;;;;;;;45.58;21.13;;;;;;;1.65;77.23;93773.38;5062945;28;20041;-87
2023/12/10 04:59:17;;;;;;;43.67;21.65;;;;;;;1.60;77.52;93758.38;5062945;28;20334;-86
2023/12/10 05:01:43;;;;;;;43.03;20.38;;;;;;;1.69;77.63;93771.00;5063871;28;20021;-87
2023/12/10 05:04:08;;;;;;;56.95;23.90;;;;;;;1.72;77.59;93771.28;5063952;28;20035;-87
2023/12/10 05:06:34;;;;;;;46.50;22.25;;;;;;;1.72;77.67;93765.25;5064514;28;20258;-86
2023/12/10 05:09:01;;;;;;;49.47;22.10;;;;;;;1.73;77.49;93787.81;5064009;28;20025;-86
2023/12/10 05:11:27;;;;;;;45.50;20.98;;;;;;;1.75;77.34;93757.63;5063822;28;20021;-87
2023/12/10 05:13:52;;;;;;;38.47;18.42;;;;;;;1.76;77.55;93772.34;5062367;28;20254;-86
2023/12/10 05:16:18;;;;;;;38.35;16.83;;;;;;;1.79;77.37;93763.94;5063854;28;20040;-87
2023/12/10 05:18:43;;;;;;;38.80;17.92;;;;;;;1.79;77.33;93765.78;5063711;28;20020;-87
2023/12/10 05:21:09;;;;;;;34.00;16.60;;;;;;;1.75;77.48;93756.81;5062412;28;20025;-87
2023/12/10 05:23:34;;;;;;;35.67;18.08;;;;;;;1.75;77.30;93765.53;5062367;28;20100;-87
2023/12/10 05:26:00;;;;;;;42.47;18.30;;;;;;;1.71;77.27;93759.22;5063888;28;20024;-87
2023/12/10 05:28:52;;;;;;;39.63;18.58;;;;;;;1.74;77.08;93769.19;5063860;28;20047;-87
2023/12/10 05:31:17;;;;;;;42.20;19.98;;;;;;;1.71;77.13;93774.16;5062537;28;20055;-87
2023/12/10 05:33:43;;;;;;;41.40;19.27;;;;;;;1.68;77.35;93764.97;5063964;28;20021;-87
2023/12/10 05:36:08;;;;;;;35.28;18.65;;;;;;;1.66;77.51;93769.69;5063736;28;20055;-87
2023/12/10 05:38:34;;;;;;;44.65;20.77;;;;;;;1.58;77.50;93765.72;5063867;28;20075;-87
2023/12/10 05:40:59;;;;;;;37.75;18.73;;;;;;;1.57;77.77;93758.13;5063946;28;20017;-86
2023/12/10 05:43:25;;;;;;;42.45;20.88;;;;;;;1.55;77.90;93765.47;5063932;28;20071;-86
2023/12/10 05:45:51;;;;;;;39.72;20.33;;;;;;;1.53;78.01;93754.44;5063698;28;20067;-87
2023/12/10 05:48:16;;;;;;;43.53;20.13;;;;;;;1.50;78.01;93762.81;5063816;28;20319;-86
2023/12/10 05:50:41;;;;;;;47.80;20.50;;;;;;;1.46;78.04;93762.53;5062172;28;20046;-86
2023/12/10 05:53:07;;;;;;;45.50;22.52;;;;;;;1.45;77.90;93760.19;5063483;28;20021;-87
2023/12/10 05:55:32;;;;;;;42.97;20.50;;;;;;;1.40;78.32;93766.19;5062386;28;20215;-87
2023/12/10 05:57:58;;;;;;;40.67;18.52;;;;;;;1.36;78.06;93762.50;5062262;28;20040;-87
2023/12/10 06:00:23;;;;;;;39.28;19.38;;;;;;;1.28;78.25;93761.16;5062382;28;20377;-87
2023/12/10 06:02:49;;;;;;;46.53;21.92;;;;;;;1.26;78.59;93747.50;5061972;28;20092;-86
2023/12/10 06:05:14;;;;;;;47.50;23.38;;;;;;;1.25;78.90;93756.44;5063263;28;20088;-86
2023/12/10 06:07:40;;;;;;;46.95;22.30;;;;;;;1.26;78.95;93754.59;5063551;28;20070;-86
2023/12/10 06:10:07;;;;;;;44.80;20.80;;;;;;;1.21;79.10;93768.50;5062174;28;20094;-86
2023/12/10 06:12:32;;;;;;;46.58;21.52;;;;;;;1.22;79.25;93762.19;5063831;28;20087;-86
2023/12/10 06:14:58;;;;;;;45.28;19.83;;;;;;;1.21;79.40;93760.63;5063098;28;20017;-86
2023/12/10 06:17:23;;;;;;;51.38;23.77;;;;;;;1.11;79.70;93761.38;5063090;28;20204;-86
2023/12/10 06:19:49;;;;;;;55.33;27.08;;;;;;;1.12;80.13;93765.59;5062194;28;20036;-87
2023/12/10 06:22:14;;;;;;;50.55;25.20;;;;;;;1.16;79.96;93757.97;5063258;28;20342;-86
2023/12/10 06:24:40;;;;;;;46.17;23.55;;;;;;;1.16;79.90;93773.72;5063184;28;20035;-87
2023/12/10 06:27:05;;;;;;;44.67;23.70;;;;;;;1.19;80.18;93762.72;5063062;28;20017;-87
2023/12/10 06:29:31;;;;;;;41.08;21.50;;;;;;;1.19;79.80;93773.22;5063255;28;20219;-86
2023/12/10 06:31:56;;;;;;;51.70;23.02;;;;;;;1.20;79.52;93759.03;5061961;28;20069;-87
2023/12/10 06:34:22;;;;;;;42.22;21.90;;;;;;;1.16;79.61;93763.22;5063041;28;20017;-87
2023/12/10 06:36:47;;;;;;;42.45;21.65;;;;;;;1.16;79.40;93757.97;5063733;28;20043;-87
2023/12/10 06:39:13;;;;;;;47.58;22.00;;;;;;;1.21;79.58;93776.38;5063347;28;20044;-87
2023/12/10 06:41:39;;;;;;;48.50;23.10;;;;;;;1.19;79.70;93774.00;5061666;28;20223;-87
2023/12/10 06:44:05;;;;;;;44.58;22.77;;;;;;;1.10;79.61;93780.81;5062619;28;20024;-86
2023/12/10 06:46:30;;;;;;;54.55;21.73;;;;;;;1.05;79.76;93777.34;5062767;28;20314;-87
2023/12/10 06:48:56;;;;;;;41.47;21.67;;;;;;;1.02;79.59;93783.09;5061318;28;20020;-86
2023/12/10 06:51:21;;;;;;;42.67;22.20;;;;;;;0.95;79.82;93788.59;5062763;28;20024;-87
2023/12/10 06:53:47;;;;;;;45.80;20.45;;;;;;;0.88;79.84;93794.06;5062549;28;20016;-86
2023/12/10 06:56:13;;;;;;;37.10;19.42;;;;;;;0.76;80.55;93790.84;5062620;28;20009;-87
2023/12/10 06:58:38;;;;;;;43.20;22.30;;;;;;;0.74;80.91;93806.06;5062539;28;20033;-87
2023/12/10 07:01:04;;;;;;;45.42;21.67;;;;;;;0.67;81.40;93798.41;5062812;28;20036;-87
2023/12/10 07:03:30;;;;;;;51.80;24.88;;;;;;;0.66;81.68;93790.78;5065218;28;20020;-87
2023/12/10 07:05:56;;;;;;;47.08;24.25;;;;;;;0.62;81.96;93805.44;5065014;28;20061;-86
2023/12/10 07:08:21;;;;;;;50.80;23.52;;;;;;;0.67;82.23;93810.72;5066289;28;20088;-86
2023/12/10 07:10:47;;;;;;;55.90;25.67;;;;;;;0.70;82.10;93807.59;5064694;28;20025;-87
2023/12/10 07:13:13;;;;;;;52.83;24.45;;;;;;;0.77;82.38;93810.78;5065827;28;20025;-86
2023/12/10 07:15:39;;;;;;;54.67;24.02;;;;;;;0.89;82.59;93815.84;5065783;28;20021;-87
2023/12/10 07:18:04;;;;;;;50.28;24.00;;;;;;;0.97;82.67;93813.53;5064530;28;20091;-87
2023/12/10 07:20:30;;;;;;;45.90;23.48;;;;;;;1.07;82.36;93812.00;5066148;28;20071;-87
2023/12/10 07:22:55;;;;;;;46.60;22.83;;;;;;;1.13;81.61;93814.41;5064646;28;20286;-87
2023/12/10 07:25:21;;;;;;;45.30;21.77;;;;;;;1.19;81.43;93807.34;5065685;28;20035;-87
2023/12/10 07:27:47;;;;;;;48.63;23.17;;;;;;;1.29;81.24;93815.28;5065933;28;20020;-87
2023/12/10 07:30:13;;;;;;;46.42;22.55;;;;;;;1.33;81.12;93805.06;5064629;28;20311;-87
2023/12/10 07:32:38;;;;;;;47.53;22.50;;;;;;;1.42;80.76;93808.75;5065657;28;20028;-87
2023/12/10 07:35:04;;;;;;;47.33;22.35;;;;;;;1.47;80.43;93800.91;5064774;28;20048;-87
2023/12/10 07:37:29;;;;;;;43.65;20.98;;;;;;;1.54;80.49;93813.78;5065906;28;20028;-85
2023/12/10 07:39:55;;;;;;;40.40;20.50;;;;;;;1.65;80.27;93804.09;5064297;28;20025;-86
2023/12/10 07:42:21;;;;;;;39.15;20.58;;;;;;;1.75;79.53;93802.31;5064237;28;20040;-86
2023/12/10 07:44:46;;;;;;;41.67;20.48;;;;;;;1.86;79.10;93807.59;5065089;28;20021;-86
2023/12/10 07:47:12;;;;;;;41.63;21.25;;;;;;;1.90;78.84;93803.41;5065400;28;20027;-86
2023/12/10 07:49:38;;;;;;;40.35;20.20;;;;;;;2.03;78.31;93799.47;5064109;28;20071;-86
2023/12/10 07:52:03;;;;;;;35.70;18.90;;;;;;;2.14;77.42;93801.84;5065308;28;20025;-86
2023/12/10 07:54:29;;;;;;;35.60;18.95;;;;;;;2.25;76.89;93812.38;5064981;28;20016;-86
2023/12/10 07:56:55;;;;;;;36.38;19.17;;;;;;;2.34;76.41;93805.53;5065163;28;20045;-86
2023/12/10 07:59:20;;;;;;;44.45;20.95;;;;;;;2.45;75.42;93815.03;5064198;28;20368;-86
2023/12/10 08:01:46;;;;;;;37.38;18.30;;;;;;;2.58;75.05;93808.44;5065241;28;20242;-86
2023/12/10 08:04:11;;;;;;;34.65;19.08;;;;;;;2.67;74.39;93811.34;5064779;28;20025;-86
2023/12/10 08:06:37;;;;;;;38.00;18.80;;;;;;;2.65;74.62;93816.88;5064799;28;20044;-86
2023/12/10 08:09:04;;;;;;;41.53;19.75;;;;;;;2.66;74.81;93820.28;5064937;28;20059;-86
2023/12/10 08:11:31;;;;;;;35.75;19.20;;;;;;;2.71;74.73;93822.91;5065226;28;20088;-86
2023/12/10 08:13:56;;;;;;;39.50;19.70;;;;;;;2.80;74.18;93813.41;5064391;28;20021;-86
2023/12/10 08:16:24;;;;;;;34.88;17.40;;;;;;;2.87;73.31;93816.59;5064748;28;20027;-86
2023/12/10 08:18:50;;;;;;;33.47;17.63;;;;;;;2.86;72.05;93815.00;5064564;28;20307;-86
2023/12/10 08:21:16;;;;;;;36.50;17.88;;;;;;;2.81;72.65;93815.78;5064544;28;20095;-86
2023/12/10 08:23:42;;;;;;;39.40;19.13;;;;;;;2.80;73.10;93818.69;5063313;28;20264;-87
2023/12/10 08:26:07;;;;;;;32.72;16.52;;;;;;;2.82;73.10;93808.69;5064324;28;20024;-87
2023/12/10 08:28:34;;;;;;;35.25;18.20;;;;;;;2.82;72.62;93819.22;5064583;28;20020;-87
2023/12/10 08:30:59;;;;;;;34.22;17.98;;;;;;;2.71;72.81;93817.66;5064522;28;20070;-87
2023/12/10 08:33:25;;;;;;;40.78;19.15;;;;;;;2.65;73.10;93816.09;5063188;28;20250;-86
2023/12/10 08:35:50;;;;;;;33.47;18.70;;;;;;;2.54;73.44;93810.00;5063259;28;20021;-87
2023/12/10 08:38:16;;;;;;;39.78;20.13;;;;;;;2.44;74.16;93802.13;5064320;28;20027;-87
2023/12/10 08:40:42;;;;;;;42.05;20.35;;;;;;;2.34;74.37;93795.81;5063170;28;20207;-87
2023/12/10 08:43:07;;;;;;;35.05;19.30;;;;;;;2.32;74.48;93791.84;5064143;28;20032;-87
2023/12/10 08:45:33;;;;;;;35.25;18.88;;;;;;;2.31;74.81;93780.56;5064007;28;20265;-87
2023/12/10 08:47:58;;;;;;;48.17;21.83;;;;;;;2.30;75.41;93791.31;5064139;28;20017;-87
2023/12/10 08:50:24;;;;;;;41.70;21.48;;;;;;;2.33;75.70;93788.19;5064289;28;20025;-87
2023/12/10 08:52:49;;;;;;;43.05;19.98;;;;;;;2.33;75.66;93793.44;5064036;28;20215;-87
2023/12/10 08:55:15;;;;;;;41.97;19.45;;;;;;;2.30;75.41;93791.31;5064254;28;20088;-87
2023/12/10 08:57:40;;;;;;;46.75;21.67;;;;;;;2.28;75.79;93794.25;5063802;28;20037;-87
2023/12/10 09:00:06;;;;;;;49.20;21.10;;;;;;;2.26;76.33;93791.09;5062883;28;20198;-87
2023/12/10 09:02:32;;;;;;;44.45;19.17;;;;;;;2.25;76.57;93789.50;5063796;28;20016;-87
2023/12/10 09:04:57;;;;;;;40.95;19.15;;;;;;;2.25;76.64;93784.22;5063703;28;20025;-87
2023/12/10 09:07:23;;;;;;;41.05;21.23;;;;;;;2.23;76.45;93781.06;5063819;28;20095;-87
2023/12/10 09:09:49;;;;;;;36.42;19.38;;;;;;;2.25;76.78;93776.34;5062665;28;20020;-87
2023/12/10 09:12:14;;;;;;;44.13;20.80;;;;;;;2.27;76.76;93781.34;5063546;28;20016;-87
2023/12/10 09:14:40;;;;;;;45.85;22.23;;;;;;;2.29;76.49;93768.72;5062484;28;20067;-87
2023/12/10 09:17:05;;;;;;;39.92;20.27;;;;;;;2.30;76.28;93760.56;5062332;28;20371;-87
2023/12/10 09:19:31;;;;;;;49.65;21.10;;;;;;;2.34;76.56;93755.56;5063810;28;20021;-87
2023/12/10 09:21:57;;;;;;;43.53;20.08;;;;;;;2.34;76.27;93756.38;5062254;28;20104;-87
2023/12/10 09:24:23;;;;;;;43.75;21.10;;;;;;;2.31;76.20;93764.00;5063034;28;20021;-87
2023/12/10 09:26:49;;;;;;;42.88;21.90;;;;;;;2.26;76.67;93771.88;5062979;28;20021;-87
2023/12/10 09:29:15;;;;;;;40.63;20.02;;;;;;;2.15;76.95;93752.69;5063454;28;20013;-87
2023/12/10 09:31:40;;;;;;;45.17;20.70;;;;;;;2.13;76.96;93755.56;5063600;28;20044;-87
2023/12/10 09:34:07;;;;;;;47.10;23.73;;;;;;;2.16;77.13;93762.16;5063256;28;20260;-86
2023/12/10 09:36:33;;;;;;;57.42;22.50;;;;;;;2.23;77.32;93760.03;5063258;28;20017;-87
2023/12/10 09:38:58;;;;;;;46.53;24.67;;;;;;;2.23;77.38;93754.00;5062207;28;20032;-87
2023/12/10 09:41:24;;;;;;;43.00;22.85;;;;;;;2.24;77.25;93747.66;5063321;28;20235;-87
2023/12/10 09:43:49;;;;;;;43.20;20.13;;;;;;;2.29;76.46;93739.78;5095449;28;20024;-87
2023/12/10 09:46:15;;;;;;;45.28;21.98;;;;;;;2.31;76.70;93741.09;5062890;28;20028;-86
2023/12/10 09:48:41;;;;;;;38.55;20.40;;;;;;;2.34;77.19;93734.50;5063019;28;20127;-87
2023/12/10 09:51:07;;;;;;;40.95;22.45;;;;;;;2.39;77.23;93732.69;5062883;28;20096;-87
2023/12/10 09:53:33;;;;;;;46.63;22.13;;;;;;;2.49;77.33;93728.47;5063341;28;20021;-87
2023/12/10 09:55:59;;;;;;;46.50;22.35;;;;;;;2.61;77.21;93728.97;5062997;28;20135;-87
2023/12/10 09:58:24;;;;;;;42.53;21.88;;;;;;;2.71;76.71;93730.81;5062756;28;20327;-87
2023/12/10 10:00:50;;;;;;;40.20;20.92;;;;;;;2.78;76.39;93723.41;5062964;28;20091;-87
2023/12/10 10:03:16;;;;;;;44.85;22.80;;;;;;;2.91;76.34;93727.31;5062892;28;20218;-87
2023/12/10 10:05:41;;;;;;;49.53;21.95;;;;;;;3.00;75.60;93726.50;5062851;28;20044;-87
2023/12/10 10:08:07;;;;;;;44.65;20.60;;;;;;;3.03;74.62;93719.91;5062922;28;20029;-87
2023/12/10 10:10:32;;;;;;;49.90;22.20;;;;;;;3.08;74.52;93725.16;5062922;28;20036;-87
2023/12/10 10:12:59;;;;;;;49.63;22.10;;;;;;;3.15;74.18;93727.50;5062873;28;20051;-88
2023/12/10 10:15:28;;;;;;;40.30;20.75;;;;;;;3.17;73.66;93731.44;5062638;28;20032;-87
2023/12/10 10:17:55;;;;;;;43.63;19.40;;;;;;;3.11;73.82;93727.25;5062654;28;20025;-87
2023/12/10 10:20:22;;;;;;;52.28;20.27;;;;;;;3.08;74.39;93727.00;5061588;28;20029;-87
2023/12/10 10:22:48;;;;;;;44.42;22.52;;;;;;;3.01;74.22;93724.66;5062753;28;20246;-87
2023/12/10 10:25:14;;;;;;;49.20;20.80;;;;;;;3.05;74.82;93722.28;5062449;28;20033;-87
2023/12/10 10:27:39;;;;;;;38.75;20.40;;;;;;;3.12;74.91;93720.94;5095064;28;20028;-88
2023/12/10 10:30:06;;;;;;;52.22;19.95;;;;;;;3.17;74.17;93720.13;5062625;28;20261;-87
2023/12/10 10:32:32;;;;;;;43.75;21.25;;;;;;;3.25;73.78;93711.66;5062836;28;20389;-88
2023/12/10 10:35:03;;;;;;;40.03;20.90;;;;;;;3.23;73.88;93713.78;5062849;28;20029;-88
2023/12/10 10:37:28;;;;;;;40.85;20.15;;;;;;;3.27;74.38;93714.81;5064313;28;20091;-88
2023/12/10 10:39:54;;;;;;;44.92;20.40;;;;;;;3.28;73.98;93705.84;5065396;28;20025;-88
2023/12/10 10:42:22;;;;;;;43.20;19.08;;;;;;;3.34;73.84;93706.63;5066585;28;20025;-88
2023/12/10 10:44:48;;;;;;;43.20;18.52;;;;;;;3.44;74.12;93711.84;5066297;28;20029;-88
2023/12/10 10:47:18;;;;;;;42.75;19.95;;;;;;;3.54;73.64;93709.16;5066642;28;20092;-88
2023/12/10 10:49:52;;;;;;;42.75;20.90;;;;;;;3.65;73.55;93699.34;5066574;28;20028;-88
2023/12/10 10:52:24;;;;;;;46.53;20.00;;;;;;;3.81;73.39;93700.81;5066445;28;20028;-88
2023/12/10 10:54:54;;;;;;;39.85;18.05;;;;;;;3.97;72.98;93693.56;5065236;28;20021;-88
2023/12/10 10:57:34;;;;;;;41.00;19.25;;;;;;;4.12;73.21;93692.66;5066048;28;20053;-88
2023/12/10 11:00:24;;;;;;;39.42;19.52;;;;;;;4.32;72.75;93685.66;5066442;28;20013;-88
2023/12/10 11:02:56;;;;;;;43.03;19.40;;;;;;;4.50;71.94;93681.50;5058486;28;20032;-88
2023/12/10 11:05:48;;;;;;;42.45;19.58;;;;;;;4.68;71.87;93678.19;5066017;28;20024;-88
2023/12/10 11:08:13;;;;;;;40.90;19.10;;;;;;;4.77;71.43;93676.47;5064719;28;20037;-88
2023/12/10 11:10:44;;;;;;;38.80;19.10;;;;;;;4.90;71.22;93675.00;5064767;28;20275;-87
2023/12/10 11:13:10;;;;;;;35.58;18.08;;;;;;;4.90;68.65;93677.66;5066058;28;20029;-88
2023/12/10 11:15:36;;;;;;;47.17;18.77;;;;;;;4.98;68.75;93676.25;5066097;28;20021;-88
2023/12/10 11:18:02;;;;;;;39.30;18.65;;;;;;;5.06;68.54;93673.00;5066006;28;20032;-87
2023/12/10 11:20:41;;;;;;;33.83;17.70;;;;;;;5.19;68.82;93671.50;5065863;28;20100;-88